sensor_id;sensor_type;location;lat;lon;timestamp;pressure;altitude;pressure_sealevel;temperature
19061;BMP280;9663;48.996;8.334;2023-10-08T00:02:25;101137.94;;;21.95
19061;BMP280;9663;48.996;8.334;2023-10-08T00:04:55;101131.19;;;21.91
19061;BMP280;9663;48.996;8.334;2023-10-08T00:07:21;101129.56;;;21.88
19061;BMP280;9663;48.996;8.334;2023-10-08T00:09:49;101127.94;;;21.86
19061;BMP280;9663;48.996;8.334;2023-10-08T00:12:17;101134.91;;;21.84
19061;BMP280;9663;48.996;8.334;2023-10-08T00:14:43;101136.66;;;21.84
19061;BMP280;9663;48.996;8.334;2023-10-08T00:17:16;101134.13;;;21.82
19061;BMP280;9663;48.996;8.334;2023-10-08T00:19:43;101133.34;;;21.80
19061;BMP280;9663;48.996;8.334;2023-10-08T00:22:10;101120.41;;;21.80
19061;BMP280;9663;48.996;8.334;2023-10-08T00:24:39;101121.38;;;21.78
19061;BMP280;9663;48.996;8.334;2023-10-08T00:27:08;101123.16;;;21.76
19061;BMP280;9663;48.996;8.334;2023-10-08T00:29:34;101122.31;;;21.75
19061;BMP280;9663;48.996;8.334;2023-10-08T00:32:04;101123.13;;;21.77
19061;BMP280;9663;48.996;8.334;2023-10-08T00:34:41;101119.66;;;21.77
19061;BMP280;9663;48.996;8.334;2023-10-08T00:37:10;101118.00;;;21.76
19061;BMP280;9663;48.996;8.334;2023-10-08T00:39:37;101110.31;;;21.74
19061;BMP280;9663;48.996;8.334;2023-10-08T00:42:06;101102.63;;;21.73
19061;BMP280;9663;48.996;8.334;2023-10-08T00:44:35;101113.81;;;21.72
19061;BMP280;9663;48.996;8.334;2023-10-08T00:47:04;101116.41;;;21.72
19061;BMP280;9663;48.996;8.334;2023-10-08T00:49:31;101108.78;;;21.69
19061;BMP280;9663;48.996;8.334;2023-10-08T00:52:04;101102.78;;;21.68
19061;BMP280;9663;48.996;8.334;2023-10-08T00:54:34;101090.78;;;21.67
19061;BMP280;9663;48.996;8.334;2023-10-08T00:57:18;101091.72;;;21.65
19061;BMP280;9663;48.996;8.334;2023-10-08T00:59:48;101096.97;;;21.62
19061;BMP280;9663;48.996;8.334;2023-10-08T01:02:25;101093.63;;;21.60
19061;BMP280;9663;48.996;8.334;2023-10-08T01:04:55;101092.88;;;21.56
19061;BMP280;9663;48.996;8.334;2023-10-08T01:07:22;101101.47;;;21.57
19061;BMP280;9663;48.996;8.334;2023-10-08T01:09:49;101091.13;;;21.57
19061;BMP280;9663;48.996;8.334;2023-10-08T01:12:24;101096.34;;;21.55
19061;BMP280;9663;48.996;8.334;2023-10-08T01:14:54;101092.00;;;21.57
19061;BMP280;9663;48.996;8.334;2023-10-08T01:17:22;101098.00;;;21.58
19061;BMP280;9663;48.996;8.334;2023-10-08T01:19:51;101098.88;;;21.57
19061;BMP280;9663;48.996;8.334;2023-10-08T01:22:34;101098.94;;;21.55
19061;BMP280;9663;48.996;8.334;2023-10-08T01:25:00;101099.91;;;21.53
19061;BMP280;9663;48.996;8.334;2023-10-08T01:27:30;101104.38;;;21.48
19061;BMP280;9663;48.996;8.334;2023-10-08T01:30:00;101105.41;;;21.44
19061;BMP280;9663;48.996;8.334;2023-10-08T01:32:44;101108.97;;;21.39
19061;BMP280;9663;48.996;8.334;2023-10-08T01:35:10;101125.44;;;21.36
19061;BMP280;9663;48.996;8.334;2023-10-08T01:37:52;101123.84;;;21.32
19061;BMP280;9663;48.996;8.334;2023-10-08T01:40:22;101120.53;;;21.29
19061;BMP280;9663;48.996;8.334;2023-10-08T01:42:51;101124.91;;;21.27
19061;BMP280;9663;48.996;8.334;2023-10-08T01:45:17;101109.59;;;21.21
19061;BMP280;9663;48.996;8.334;2023-10-08T01:47:45;101104.63;;;21.16
19061;BMP280;9663;48.996;8.334;2023-10-08T01:50:11;101102.19;;;21.12
19061;BMP280;9663;48.996;8.334;2023-10-08T01:52:53;101099.88;;;21.04
19061;BMP280;9663;48.996;8.334;2023-10-08T01:55:19;101101.66;;;21.02
19061;BMP280;9663;48.996;8.334;2023-10-08T01:57:50;101103.53;;;20.98
19061;BMP280;9663;48.996;8.334;2023-10-08T02:00:19;101101.09;;;20.93
19061;BMP280;9663;48.996;8.334;2023-10-08T02:02:52;101097.91;;;20.87
19061;BMP280;9663;48.996;8.334;2023-10-08T02:05:19;101103.16;;;20.84
19061;BMP280;9663;48.996;8.334;2023-10-08T02:07:46;101092.13;;;20.80
19061;BMP280;9663;48.996;8.334;2023-10-08T02:10:13;101099.91;;;20.79
19061;BMP280;9663;48.996;8.334;2023-10-08T02:12:41;101096.63;;;20.74
19061;BMP280;9663;48.996;8.334;2023-10-08T02:15:08;101089.00;;;20.71
19061;BMP280;9663;48.996;8.334;2023-10-08T02:17:37;101095.13;;;20.67
19061;BMP280;9663;48.996;8.334;2023-10-08T02:20:05;101096.91;;;20.63
19061;BMP280;9663;48.996;8.334;2023-10-08T02:22:34;101093.56;;;20.61
19061;BMP280;9663;48.996;8.334;2023-10-08T02:24:59;101094.50;;;20.59
19061;BMP280;9663;48.996;8.334;2023-10-08T02:27:29;101102.28;;;20.57
19061;BMP280;9663;48.996;8.334;2023-10-08T02:29:54;101102.28;;;20.57
19061;BMP280;9663;48.996;8.334;2023-10-08T02:32:21;101102.28;;;20.57
19061;BMP280;9663;48.996;8.334;2023-10-08T02:34:49;101100.59;;;20.56
19061;BMP280;9663;48.996;8.334;2023-10-08T02:37:16;101091.09;;;20.57
19061;BMP280;9663;48.996;8.334;2023-10-08T02:39:42;101099.78;;;20.55
19061;BMP280;9663;48.996;8.334;2023-10-08T02:42:08;101101.53;;;20.54
19061;BMP280;9663;48.996;8.334;2023-10-08T02:44:37;101100.69;;;20.54
19061;BMP280;9663;48.996;8.334;2023-10-08T02:47:09;101104.22;;;20.51
19061;BMP280;9663;48.996;8.334;2023-10-08T02:49:37;101098.16;;;20.52
19061;BMP280;9663;48.996;8.334;2023-10-08T02:52:07;101112.72;;;20.53
19061;BMP280;9663;48.996;8.334;2023-10-08T02:54:35;101102.47;;;20.52
19061;BMP280;9663;48.996;8.334;2023-10-08T02:57:04;101109.41;;;20.50
19061;BMP280;9663;48.996;8.334;2023-10-08T02:59:34;101112.91;;;20.47
19061;BMP280;9663;48.996;8.334;2023-10-08T03:02:11;101109.59;;;20.44
19061;BMP280;9663;48.996;8.334;2023-10-08T03:04:45;101105.34;;;20.43
19061;BMP280;9663;48.996;8.334;2023-10-08T03:07:13;101108.78;;;20.42
19061;BMP280;9663;48.996;8.334;2023-10-08T03:09:47;101108.88;;;20.39
19061;BMP280;9663;48.996;8.334;2023-10-08T03:12:18;101106.34;;;20.37
19061;BMP280;9663;48.996;8.334;2023-10-08T03:14:44;101098.75;;;20.34
19061;BMP280;9663;48.996;8.334;2023-10-08T03:17:29;101103.06;;;20.32
19061;BMP280;9663;48.996;8.334;2023-10-08T03:19:56;101101.50;;;20.28
19061;BMP280;9663;48.996;8.334;2023-10-08T03:22:44;101099.03;;;20.24
19061;BMP280;9663;48.996;8.334;2023-10-08T03:25:13;101099.25;;;20.18
19061;BMP280;9663;48.996;8.334;2023-10-08T03:27:42;101098.47;;;20.14
19061;BMP280;9663;48.996;8.334;2023-10-08T03:30:09;101094.28;;;20.12
19061;BMP280;9663;48.996;8.334;2023-10-08T03:32:41;101094.31;;;20.11
19061;BMP280;9663;48.996;8.334;2023-10-08T03:35:08;101095.19;;;20.10
19061;BMP280;9663;48.996;8.334;2023-10-08T03:37:37;101108.06;;;20.10
19061;BMP280;9663;48.996;8.334;2023-10-08T03:40:12;101096.00;;;20.12
19061;BMP280;9663;48.996;8.334;2023-10-08T03:43:08;101105.50;;;20.10
19061;BMP280;9663;48.996;8.334;2023-10-08T03:45:45;101108.94;;;20.10
19061;BMP280;9663;48.996;8.334;2023-10-08T03:48:17;101115.75;;;20.11
19061;BMP280;9663;48.996;8.334;2023-10-08T03:50:43;101115.72;;;20.13
19061;BMP280;9663;48.996;8.334;2023-10-08T03:53:09;101111.44;;;20.13
19061;BMP280;9663;48.996;8.334;2023-10-08T03:55:39;101108.84;;;20.13
19061;BMP280;9663;48.996;8.334;2023-10-08T03:58:09;101106.31;;;20.12
19061;BMP280;9663;48.996;8.334;2023-10-08T04:00:53;101100.41;;;20.08
19061;BMP280;9663;48.996;8.334;2023-10-08T04:03:34;101097.88;;;20.07
19061;BMP280;9663;48.996;8.334;2023-10-08T04:06:24;101091.19;;;20.00
19061;BMP280;9663;48.996;8.334;2023-10-08T04:09:00;101090.44;;;19.96
19061;BMP280;9663;48.996;8.334;2023-10-08T04:11:36;101087.16;;;19.91
19061;BMP280;9663;48.996;8.334;2023-10-08T04:14:09;101085.50;;;19.90
19061;BMP280;9663;48.996;8.334;2023-10-08T04:16:34;101091.56;;;19.88
19061;BMP280;9663;48.996;8.334;2023-10-08T04:19:04;101082.22;;;19.85
19061;BMP280;9663;48.996;8.334;2023-10-08T04:21:30;101086.50;;;19.83
19061;BMP280;9663;48.996;8.334;2023-10-08T04:24:00;101076.22;;;19.83
19061;BMP280;9663;48.996;8.334;2023-10-08T04:26:34;101078.91;;;19.80
19061;BMP280;9663;48.996;8.334;2023-10-08T04:29:01;101085.78;;;19.78
19061;BMP280;9663;48.996;8.334;2023-10-08T04:31:33;101084.13;;;19.77
19061;BMP280;9663;48.996;8.334;2023-10-08T04:34:10;101085.91;;;19.75
19061;BMP280;9663;48.996;8.334;2023-10-08T04:36:44;101087.66;;;19.73
19061;BMP280;9663;48.996;8.334;2023-10-08T04:39:22;101088.59;;;19.71
19061;BMP280;9663;48.996;8.334;2023-10-08T04:42:01;101086.97;;;19.67
19061;BMP280;9663;48.996;8.334;2023-10-08T04:44:38;101092.25;;;19.64
19061;BMP280;9663;48.996;8.334;2023-10-08T04:47:07;101093.16;;;19.62
19061;BMP280;9663;48.996;8.334;2023-10-08T04:49:37;101090.63;;;19.60
19061;BMP280;9663;48.996;8.334;2023-10-08T04:52:11;101093.28;;;19.57
19061;BMP280;9663;48.996;8.334;2023-10-08T04:54:42;101104.53;;;19.53
19061;BMP280;9663;48.996;8.334;2023-10-08T04:57:18;101099.47;;;19.50
19061;BMP280;9663;48.996;8.334;2023-10-08T04:59:44;101104.66;;;19.49
19061;BMP280;9663;48.996;8.334;2023-10-08T05:02:12;101107.28;;;19.47
19061;BMP280;9663;48.996;8.334;2023-10-08T05:04:56;101123.69;;;19.43
19061;BMP280;9663;48.996;8.334;2023-10-08T05:07:37;101117.78;;;19.40
19061;BMP280;9663;48.996;8.334;2023-10-08T05:10:26;101115.31;;;19.35
19061;BMP280;9663;48.996;8.334;2023-10-08T05:12:55;101123.88;;;19.36
19061;BMP280;9663;48.996;8.334;2023-10-08T05:15:40;101125.69;;;19.32
19061;BMP280;9663;48.996;8.334;2023-10-08T05:18:18;101124.03;;;19.31
19061;BMP280;9663;48.996;8.334;2023-10-08T05:20:44;101130.06;;;19.29
19061;BMP280;9663;48.996;8.334;2023-10-08T05:23:19;101125.94;;;19.24
19061;BMP280;9663;48.996;8.334;2023-10-08T05:25:56;101126.06;;;19.19
19061;BMP280;9663;48.996;8.334;2023-10-08T05:28:30;101123.63;;;19.15
19061;BMP280;9663;48.996;8.334;2023-10-08T05:30:56;101127.94;;;19.13
19061;BMP280;9663;48.996;8.334;2023-10-08T05:33:44;101115.06;;;19.13
19061;BMP280;9663;48.996;8.334;2023-10-08T05:36:15;101117.66;;;19.13
19061;BMP280;9663;48.996;8.334;2023-10-08T05:38:54;101121.09;;;19.13
19061;BMP280;9663;48.996;8.334;2023-10-08T05:41:38;101115.09;;;19.11
19061;BMP280;9663;48.996;8.334;2023-10-08T05:44:18;101111.63;;;19.14
19061;BMP280;9663;48.996;8.334;2023-10-08T05:46:44;101113.22;;;19.18
19061;BMP280;9663;48.996;8.334;2023-10-08T05:49:22;101111.41;;;19.21
19061;BMP280;9663;48.996;8.334;2023-10-08T05:52:04;101108.69;;;19.27
19061;BMP280;9663;48.996;8.334;2023-10-08T05:54:31;101112.88;;;19.31
19061;BMP280;9663;48.996;8.334;2023-10-08T05:57:01;101107.59;;;19.35
19061;BMP280;9663;48.996;8.334;2023-10-08T06:02:40;101091.03;;;19.45
19061;BMP280;9663;48.996;8.334;2023-10-08T06:05:10;101095.25;;;19.49
19061;BMP280;9663;48.996;8.334;2023-10-08T06:07:53;101101.19;;;19.51
19061;BMP280;9663;48.996;8.334;2023-10-08T06:10:37;101101.19;;;19.51
19061;BMP280;9663;48.996;8.334;2023-10-08T06:13:08;101101.81;;;19.59
19061;BMP280;9663;48.996;8.334;2023-10-08T06:15:46;101109.44;;;19.62
19061;BMP280;9663;48.996;8.334;2023-10-08T06:18:30;101108.41;;;19.69
19061;BMP280;9663;48.996;8.334;2023-10-08T06:21:05;101109.13;;;19.74
19061;BMP280;9663;48.996;8.334;2023-10-08T06:23:40;101110.69;;;19.78
19061;BMP280;9663;48.996;8.334;2023-10-08T06:26:08;101106.31;;;19.81
19061;BMP280;9663;48.996;8.334;2023-10-08T06:28:39;101114.78;;;19.86
19061;BMP280;9663;48.996;8.334;2023-10-08T06:31:06;101111.25;;;19.90
19061;BMP280;9663;48.996;8.334;2023-10-08T06:33:48;101112.09;;;19.91
19061;BMP280;9663;48.996;8.334;2023-10-08T06:36:14;101095.59;;;19.96
19061;BMP280;9663;48.996;8.334;2023-10-08T06:38:48;101109.22;;;20.00
19061;BMP280;9663;48.996;8.334;2023-10-08T06:41:15;101110.09;;;20.00
19061;BMP280;9663;48.996;8.334;2023-10-08T06:43:47;101126.41;;;19.99
19061;BMP280;9663;48.996;8.334;2023-10-08T06:46:28;101131.66;;;19.96
19061;BMP280;9663;48.996;8.334;2023-10-08T06:48:58;101129.13;;;19.95
19061;BMP280;9663;48.996;8.334;2023-10-08T06:51:24;101141.16;;;19.94
19061;BMP280;9663;48.996;8.334;2023-10-08T06:53:52;101136.84;;;19.95
19061;BMP280;9663;48.996;8.334;2023-10-08T06:56:20;101139.34;;;19.98
19061;BMP280;9663;48.996;8.334;2023-10-08T06:58:46;101146.06;;;20.03
19061;BMP280;9663;48.996;8.334;2023-10-08T07:01:16;101146.78;;;20.08
19061;BMP280;9663;48.996;8.334;2023-10-08T07:03:54;101150.88;;;20.13
19061;BMP280;9663;48.996;8.334;2023-10-08T07:06:29;101145.53;;;20.19
19061;BMP280;9663;48.996;8.334;2023-10-08T07:09:01;101155.50;;;20.31
19061;BMP280;9663;48.996;8.334;2023-10-08T07:11:34;101163.75;;;20.42
19061;BMP280;9663;48.996;8.334;2023-10-08T07:14:04;101185.69;;;20.55
19061;BMP280;9663;48.996;8.334;2023-10-08T07:16:33;101180.25;;;20.64
19061;BMP280;9663;48.996;8.334;2023-10-08T07:19:00;101175.69;;;20.73
19061;BMP280;9663;48.996;8.334;2023-10-08T07:21:29;101175.41;;;20.82
19061;BMP280;9663;48.996;8.334;2023-10-08T07:24:04;101189.56;;;20.97
19061;BMP280;9663;48.996;8.334;2023-10-08T07:26:34;101193.59;;;21.05
19061;BMP280;9663;48.996;8.334;2023-10-08T07:29:05;101194.94;;;21.16
19061;BMP280;9663;48.996;8.334;2023-10-08T07:31:35;101185.13;;;21.26
19061;BMP280;9663;48.996;8.334;2023-10-08T07:34:03;101168.38;;;21.37
19061;BMP280;9663;48.996;8.334;2023-10-08T07:36:50;101156.88;;;21.47
19061;BMP280;9663;48.996;8.334;2023-10-08T07:39:18;101170.19;;;21.61
19061;BMP280;9663;48.996;8.334;2023-10-08T07:41:51;101155.09;;;21.73
19061;BMP280;9663;48.996;8.334;2023-10-08T07:44:17;101155.50;;;21.86
19061;BMP280;9663;48.996;8.334;2023-10-08T07:47:03;101163.53;;;22.01
19061;BMP280;9663;48.996;8.334;2023-10-08T07:49:39;101157.06;;;22.12
19061;BMP280;9663;48.996;8.334;2023-10-08T07:52:04;101150.59;;;22.25
19061;BMP280;9663;48.996;8.334;2023-10-08T07:54:33;101152.69;;;22.37
19061;BMP280;9663;48.996;8.334;2023-10-08T07:57:03;101155.72;;;22.48
19061;BMP280;9663;48.996;8.334;2023-10-08T07:59:39;101171.69;;;22.59
19061;BMP280;9663;48.996;8.334;2023-10-08T08:02:28;101184.13;;;22.71
19061;BMP280;9663;48.996;8.334;2023-10-08T08:04:54;101179.34;;;22.81
19061;BMP280;9663;48.996;8.334;2023-10-08T08:07:20;101187.50;;;22.94
19061;BMP280;9663;48.996;8.334;2023-10-08T08:09:51;101207.66;;;23.07
19061;BMP280;9663;48.996;8.334;2023-10-08T08:12:18;101202.78;;;23.21
19061;BMP280;9663;48.996;8.334;2023-10-08T08:14:45;101209.97;;;23.34
19061;BMP280;9663;48.996;8.334;2023-10-08T08:17:11;101198.25;;;23.46
19061;BMP280;9663;48.996;8.334;2023-10-08T08:19:42;101202.00;;;23.58
19061;BMP280;9663;48.996;8.334;2023-10-08T08:22:11;101205.84;;;23.70
19061;BMP280;9663;48.996;8.334;2023-10-08T08:24:50;101200.94;;;23.84
19061;BMP280;9663;48.996;8.334;2023-10-08T08:27:20;101209.16;;;23.93
19061;BMP280;9663;48.996;8.334;2023-10-08T08:29:58;101206.91;;;24.04
19061;BMP280;9663;48.996;8.334;2023-10-08T08:32:39;101197.75;;;24.15
19061;BMP280;9663;48.996;8.334;2023-10-08T08:35:10;101191.94;;;24.29
19061;BMP280;9663;48.996;8.334;2023-10-08T08:37:36;101189.75;;;24.40
19061;BMP280;9663;48.996;8.334;2023-10-08T08:40:10;101192.97;;;24.45
19061;BMP280;9663;48.996;8.334;2023-10-08T08:42:50;101201.66;;;24.44
19061;BMP280;9663;48.996;8.334;2023-10-08T08:45:22;101221.69;;;24.40
19061;BMP280;9663;48.996;8.334;2023-10-08T08:47:53;101223.44;;;24.40
19061;BMP280;9663;48.996;8.334;2023-10-08T08:50:19;101218.00;;;24.46
19061;BMP280;9663;48.996;8.334;2023-10-08T08:52:47;101216.66;;;24.55
19061;BMP280;9663;48.996;8.334;2023-10-08T08:55:13;101218.00;;;24.64
19061;BMP280;9663;48.996;8.334;2023-10-08T08:57:48;101217.75;;;24.68
19061;BMP280;9663;48.996;8.334;2023-10-08T09:00:18;101223.66;;;24.72
19061;BMP280;9663;48.996;8.334;2023-10-08T09:02:46;101220.00;;;24.76
19061;BMP280;9663;48.996;8.334;2023-10-08T09:05:13;101227.56;;;24.80
19061;BMP280;9663;48.996;8.334;2023-10-08T09:08:07;101226.66;;;24.81
19061;BMP280;9663;48.996;8.334;2023-10-08T09:10:36;101217.44;;;24.92
19061;BMP280;9663;48.996;8.334;2023-10-08T09:13:08;101220.53;;;25.00
19061;BMP280;9663;48.996;8.334;2023-10-08T09:15:35;101208.88;;;25.09
19061;BMP280;9663;48.996;8.334;2023-10-08T09:18:02;101207.59;;;25.17
19061;BMP280;9663;48.996;8.334;2023-10-08T09:20:37;101192.69;;;25.21
19061;BMP280;9663;48.996;8.334;2023-10-08T09:23:11;101188.28;;;25.23
19061;BMP280;9663;48.996;8.334;2023-10-08T09:25:45;101189.88;;;25.25
19061;BMP280;9663;48.996;8.334;2023-10-08T09:28:15;101192.41;;;25.27
19061;BMP280;9663;48.996;8.334;2023-10-08T09:30:43;101193.94;;;25.31
19061;BMP280;9663;48.996;8.334;2023-10-08T09:33:12;101190.28;;;25.34
19061;BMP280;9663;48.996;8.334;2023-10-08T09:35:38;101194.16;;;25.43
19061;BMP280;9663;48.996;8.334;2023-10-08T09:38:06;101198.59;;;25.58
19061;BMP280;9663;48.996;8.334;2023-10-08T09:40:40;101190.63;;;25.77
19061;BMP280;9663;48.996;8.334;2023-10-08T09:43:13;101199.94;;;25.98
19061;BMP280;9663;48.996;8.334;2023-10-08T09:45:43;101197.13;;;26.18
19061;BMP280;9663;48.996;8.334;2023-10-08T09:48:16;101194.31;;;26.38
19061;BMP280;9663;48.996;8.334;2023-10-08T09:50:46;101197.09;;;26.50
19061;BMP280;9663;48.996;8.334;2023-10-08T09:53:14;101191.81;;;26.67
19061;BMP280;9663;48.996;8.334;2023-10-08T09:55:56;101186.50;;;26.84
19061;BMP280;9663;48.996;8.334;2023-10-08T09:58:27;101187.34;;;27.00
19061;BMP280;9663;48.996;8.334;2023-10-08T10:00:56;101195.19;;;27.13
19061;BMP280;9663;48.996;8.334;2023-10-08T10:03:27;101190.78;;;27.29
19061;BMP280;9663;48.996;8.334;2023-10-08T10:05:53;101184.78;;;27.43
19061;BMP280;9663;48.996;8.334;2023-10-08T10:08:24;101198.34;;;27.63
19061;BMP280;9663;48.996;8.334;2023-10-08T10:10:59;101193.06;;;27.78
19061;BMP280;9663;48.996;8.334;2023-10-08T10:13:29;101195.00;;;27.89
19061;BMP280;9663;48.996;8.334;2023-10-08T10:15:56;101199.00;;;27.94
19061;BMP280;9663;48.996;8.334;2023-10-08T10:23:48;101179.13;;;28.75
19061;BMP280;9663;48.996;8.334;2023-10-08T10:26:29;101187.69;;;28.63
19061;BMP280;9663;48.996;8.334;2023-10-08T10:31:49;101184.72;;;28.95
19061;BMP280;9663;48.996;8.334;2023-10-08T10:34:27;101174.63;;;29.03
19061;BMP280;9663;48.996;8.334;2023-10-08T10:36:55;101186.78;;;29.16
19061;BMP280;9663;48.996;8.334;2023-10-08T10:39:23;101181.38;;;29.31
19061;BMP280;9663;48.996;8.334;2023-10-08T10:41:55;101184.22;;;29.41
19061;BMP280;9663;48.996;8.334;2023-10-08T10:44:28;101189.06;;;29.47
19061;BMP280;9663;48.996;8.334;2023-10-08T10:46:56;101182.66;;;29.51
19061;BMP280;9663;48.996;8.334;2023-10-08T10:49:41;101188.31;;;29.57
19061;BMP280;9663;48.996;8.334;2023-10-08T10:52:15;101178.28;;;29.64
19061;BMP280;9663;48.996;8.334;2023-10-08T10:55:04;101185.94;;;29.67
19061;BMP280;9663;48.996;8.334;2023-10-08T10:57:50;101186.47;;;29.71
19061;BMP280;9663;48.996;8.334;2023-10-08T11:00:35;101169.72;;;29.74
19061;BMP280;9663;48.996;8.334;2023-10-08T11:03:03;101172.16;;;29.77
19061;BMP280;9663;48.996;8.334;2023-10-08T11:05:34;101166.72;;;29.80
19061;BMP280;9663;48.996;8.334;2023-10-08T11:08:05;101154.16;;;29.85
19061;BMP280;9663;48.996;8.334;2023-10-08T11:10:34;101149.28;;;30.16
19061;BMP280;9663;48.996;8.334;2023-10-08T11:13:01;101139.50;;;30.89
19061;BMP280;9663;48.996;8.334;2023-10-08T11:15:30;101107.31;;;31.88
19061;BMP280;9663;48.996;8.334;2023-10-08T11:18:13;101121.91;;;32.98
19061;BMP280;9663;48.996;8.334;2023-10-08T11:20:43;101124.03;;;33.74
19061;BMP280;9663;48.996;8.334;2023-10-08T11:23:34;101123.53;;;34.28
19061;BMP280;9663;48.996;8.334;2023-10-08T11:26:05;101115.03;;;34.83
19061;BMP280;9663;48.996;8.334;2023-10-08T11:28:39;101107.13;;;35.20
19061;BMP280;9663;48.996;8.334;2023-10-08T11:31:11;101113.97;;;35.49
19061;BMP280;9663;48.996;8.334;2023-10-08T11:33:42;101109.72;;;35.85
19061;BMP280;9663;48.996;8.334;2023-10-08T11:36:09;101112.19;;;36.13
19061;BMP280;9663;48.996;8.334;2023-10-08T11:38:46;101118.19;;;36.41
19061;BMP280;9663;48.996;8.334;2023-10-08T11:41:17;101110.63;;;36.46
19061;BMP280;9663;48.996;8.334;2023-10-08T11:46:14;101110.72;;;36.89
19061;BMP280;9663;48.996;8.334;2023-10-08T11:48:43;101109.00;;;37.05
19061;BMP280;9663;48.996;8.334;2023-10-08T11:51:12;101099.53;;;37.12
19061;BMP280;9663;48.996;8.334;2023-10-08T11:53:43;101106.16;;;37.16
19061;BMP280;9663;48.996;8.334;2023-10-08T11:56:11;101109.00;;;37.05
19061;BMP280;9663;48.996;8.334;2023-10-08T11:58:41;101102.22;;;37.03
19061;BMP280;9663;48.996;8.334;2023-10-08T12:01:11;101108.25;;;37.30
19061;BMP280;9663;48.996;8.334;2023-10-08T12:03:42;101102.50;;;37.67
19061;BMP280;9663;48.996;8.334;2023-10-08T12:06:11;101092.59;;;38.03
19061;BMP280;9663;48.996;8.334;2023-10-08T12:08:42;101085.06;;;38.23
19061;BMP280;9663;48.996;8.334;2023-10-08T12:11:11;101094.78;;;38.23
19061;BMP280;9663;48.996;8.334;2023-10-08T12:13:38;101093.06;;;38.47
19061;BMP280;9663;48.996;8.334;2023-10-08T12:16:09;101079.97;;;38.77
19061;BMP280;9663;48.996;8.334;2023-10-08T12:18:38;101080.50;;;39.04
19061;BMP280;9663;48.996;8.334;2023-10-08T12:21:09;101077.66;;;39.22
19061;BMP280;9663;48.996;8.334;2023-10-08T12:23:42;101082.94;;;39.30
19061;BMP280;9663;48.996;8.334;2023-10-08T12:26:15;101073.97;;;39.38
19061;BMP280;9663;48.996;8.334;2023-10-08T12:28:42;101073.88;;;39.62
19061;BMP280;9663;48.996;8.334;2023-10-08T12:31:12;101077.28;;;39.86
19061;BMP280;9663;48.996;8.334;2023-10-08T12:33:38;101077.38;;;40.09
19061;BMP280;9663;48.996;8.334;2023-10-08T12:36:04;101074.50;;;40.40
19061;BMP280;9663;48.996;8.334;2023-10-08T12:38:43;101075.88;;;40.59
19061;BMP280;9663;48.996;8.334;2023-10-08T12:41:12;101061.66;;;40.74
19061;BMP280;9663;48.996;8.334;2023-10-08T12:43:43;101064.75;;;41.00
19061;BMP280;9663;48.996;8.334;2023-10-08T12:46:12;101063.94;;;41.28
19061;BMP280;9663;48.996;8.334;2023-10-08T12:48:47;101052.94;;;41.59
19061;BMP280;9663;48.996;8.334;2023-10-08T12:51:18;101053.22;;;41.79
19061;BMP280;9663;48.996;8.334;2023-10-08T12:53:46;101057.69;;;41.93
19061;BMP280;9663;48.996;8.334;2023-10-08T12:56:25;101057.34;;;42.16
19061;BMP280;9663;48.996;8.334;2023-10-08T12:58:58;101039.94;;;42.35
19061;BMP280;9663;48.996;8.334;2023-10-08T13:01:24;101049.78;;;42.55
19061;BMP280;9663;48.996;8.334;2023-10-08T13:03:55;101049.31;;;42.72
19061;BMP280;9663;48.996;8.334;2023-10-08T13:06:25;101044.63;;;42.53
19061;BMP280;9663;48.996;8.334;2023-10-08T13:08:57;101042.16;;;42.31
19061;BMP280;9663;48.996;8.334;2023-10-08T13:11:26;101040.88;;;42.27
19061;BMP280;9663;48.996;8.334;2023-10-08T13:13:56;101040.34;;;42.17
19061;BMP280;9663;48.996;8.334;2023-10-08T13:16:27;101040.31;;;41.97
19061;BMP280;9663;48.996;8.334;2023-10-08T13:19:04;101038.06;;;41.79
19061;BMP280;9663;48.996;8.334;2023-10-08T13:21:30;101047.63;;;41.74
19061;BMP280;9663;48.996;8.334;2023-10-08T13:23:57;101042.69;;;41.92
19061;BMP280;9663;48.996;8.334;2023-10-08T13:26:29;101031.19;;;42.05
19061;BMP280;9663;48.996;8.334;2023-10-08T13:28:57;101037.00;;;42.09
19061;BMP280;9663;48.996;8.334;2023-10-08T13:31:27;101028.69;;;42.18
19061;BMP280;9663;48.996;8.334;2023-10-08T13:33:53;101029.22;;;42.28
19061;BMP280;9663;48.996;8.334;2023-10-08T13:36:23;101029.88;;;42.16
19061;BMP280;9663;48.996;8.334;2023-10-08T13:38:50;101034.59;;;42.14
19061;BMP280;9663;48.996;8.334;2023-10-08T13:41:17;101030.13;;;42.00
19061;BMP280;9663;48.996;8.334;2023-10-08T13:43:48;101029.44;;;41.49
19061;BMP280;9663;48.996;8.334;2023-10-08T13:46:26;101036.56;;;40.54
19061;BMP280;9663;48.996;8.334;2023-10-08T13:48:52;101028.28;;;39.59
19061;BMP280;9663;48.996;8.334;2023-10-08T13:51:22;101033.25;;;38.68
19061;BMP280;9663;48.996;8.334;2023-10-08T13:53:56;101024.50;;;37.87
19061;BMP280;9663;48.996;8.334;2023-10-08T13:56:27;101040.03;;;37.16
19061;BMP280;9663;48.996;8.334;2023-10-08T13:58:56;101039.56;;;36.61
19061;BMP280;9663;48.996;8.334;2023-10-08T14:01:33;101030.19;;;36.14
19061;BMP280;9663;48.996;8.334;2023-10-08T14:04:01;101027.09;;;35.75
19061;BMP280;9663;48.996;8.334;2023-10-08T14:06:47;101035.88;;;35.39
19061;BMP280;9663;48.996;8.334;2023-10-08T14:09:14;101034.94;;;35.12
19061;BMP280;9663;48.996;8.334;2023-10-08T14:11:47;101030.16;;;34.89
19061;BMP280;9663;48.996;8.334;2023-10-08T14:14:13;101022.94;;;34.72
19061;BMP280;9663;48.996;8.334;2023-10-08T14:16:43;101022.81;;;34.54
19061;BMP280;9663;48.996;8.334;2023-10-08T14:19:12;101020.75;;;34.49
19061;BMP280;9663;48.996;8.334;2023-10-08T14:21:42;101012.44;;;34.44
19061;BMP280;9663;48.996;8.334;2023-10-08T14:24:20;101021.28;;;34.43
19061;BMP280;9663;48.996;8.334;2023-10-08T14:26:47;101008.69;;;34.65
19061;BMP280;9663;48.996;8.334;2023-10-08T14:29:22;101008.28;;;35.24
19061;BMP280;9663;48.996;8.334;2023-10-08T14:31:52;101005.88;;;35.93
19061;BMP280;9663;48.996;8.334;2023-10-08T14:34:21;101009.84;;;36.76
19061;BMP280;9663;48.996;8.334;2023-10-08T14:37:07;101000.44;;;37.65
19061;BMP280;9663;48.996;8.334;2023-10-08T14:39:52;100997.44;;;38.41
19061;BMP280;9663;48.996;8.334;2023-10-08T14:42:36;100989.84;;;38.93
19061;BMP280;9663;48.996;8.334;2023-10-08T14:45:26;100990.59;;;39.33
19061;BMP280;9663;48.996;8.334;2023-10-08T14:47:57;100990.63;;;39.55
19061;BMP280;9663;48.996;8.334;2023-10-08T14:50:25;100984.03;;;39.82